Terminal Aerodrome Forecast
Issued by NWS

Home | Current Version | Previous Version | Graphics & Text | Print | Product List | Glossary On
Versions: 1 2 3 4 5 6 7 8 9 10 11 12
000
FTUS43 KICT 031720
TAFRSL
TAF
KRSL 031720Z 0318/0418 06008KT P6SM SCT250
     FM032100 16011KT P6SM SCT070 SCT250
     FM041200 20011KT P6SM VCSH SCT050 BKN100=

USA.gov is the U.S. government's official web portal to all federal, state and local government web resources and services.